ADDS TAF Data INFO
IDs: Format: Raw Decoded Include METARs

Data at: 0932 UTC 17 Aug 2018

KVLD 170531Z 1706/1806 00000KT P6SM SCT250
  FM171500 18005KT P6SM SCT030
  FM171900 19006KT P6SM VCTS BKN035CB
  FM180000 VRB04KT P6SM OVC250